sensor_id;sensor_type;location;lat;lon;timestamp;temperature;humidity
23827;DHT22;12094;50.822;4.376;2023-08-17T00:00:03;21.70;99.90
23827;DHT22;12094;50.822;4.376;2023-08-17T00:02:34;21.70;99.90
23827;DHT22;12094;50.822;4.376;2023-08-17T00:05:02;21.60;99.90
23827;DHT22;12094;50.822;4.376;2023-08-17T00:07:30;21.60;99.90
23827;DHT22;12094;50.822;4.376;2023-08-17T00:09:59;21.50;99.90
23827;DHT22;12094;50.822;4.376;2023-08-17T00:12:27;21.50;99.90
23827;DHT22;12094;50.822;4.376;2023-08-17T00:14:54;21.30;99.90
23827;DHT22;12094;50.822;4.376;2023-08-17T00:17:22;21.30;99.90
23827;DHT22;12094;50.822;4.376;2023-08-17T00:19:51;21.20;99.90
23827;DHT22;12094;50.822;4.376;2023-08-17T00:22:18;21.20;99.90
23827;DHT22;12094;50.822;4.376;2023-08-17T00:24:45;21.20;99.90
23827;DHT22;12094;50.822;4.376;2023-08-17T00:27:14;21.20;99.90
23827;DHT22;12094;50.822;4.376;2023-08-17T00:29:42;21.20;99.90
23827;DHT22;12094;50.822;4.376;2023-08-17T00:32:09;21.10;99.90
23827;DHT22;12094;50.822;4.376;2023-08-17T00:34:37;21.10;99.90
23827;DHT22;12094;50.822;4.376;2023-08-17T00:37:04;21.00;99.90
23827;DHT22;12094;50.822;4.376;2023-08-17T00:39:31;20.90;99.90
23827;DHT22;12094;50.822;4.376;2023-08-17T00:41:58;20.90;99.90
23827;DHT22;12094;50.822;4.376;2023-08-17T00:44:26;20.90;99.90
23827;DHT22;12094;50.822;4.376;2023-08-17T00:46:53;20.90;99.90
23827;DHT22;12094;50.822;4.376;2023-08-17T00:49:21;20.90;99.90
23827;DHT22;12094;50.822;4.376;2023-08-17T00:51:48;20.80;99.90
23827;DHT22;12094;50.822;4.376;2023-08-17T00:54:23;20.90;99.90
23827;DHT22;12094;50.822;4.376;2023-08-17T00:56:52;20.90;99.90
23827;DHT22;12094;50.822;4.376;2023-08-17T00:59:20;20.80;99.90
23827;DHT22;12094;50.822;4.376;2023-08-17T01:01:48;20.90;99.90
23827;DHT22;12094;50.822;4.376;2023-08-17T01:04:16;20.80;99.90
23827;DHT22;12094;50.822;4.376;2023-08-17T01:06:45;20.90;99.90
23827;DHT22;12094;50.822;4.376;2023-08-17T01:09:18;20.90;99.90
23827;DHT22;12094;50.822;4.376;2023-08-17T01:11:52;21.00;99.90
23827;DHT22;12094;50.822;4.376;2023-08-17T01:17:17;20.80;99.90
23827;DHT22;12094;50.822;4.376;2023-08-17T01:19:46;20.90;99.90
23827;DHT22;12094;50.822;4.376;2023-08-17T01:22:17;21.00;99.90
23827;DHT22;12094;50.822;4.376;2023-08-17T01:24:47;21.00;99.90
23827;DHT22;12094;50.822;4.376;2023-08-17T01:27:15;21.00;99.90
23827;DHT22;12094;50.822;4.376;2023-08-17T01:29:48;21.10;99.90
23827;DHT22;12094;50.822;4.376;2023-08-17T01:32:16;20.90;99.90
23827;DHT22;12094;50.822;4.376;2023-08-17T01:34:57;20.80;99.90
23827;DHT22;12094;50.822;4.376;2023-08-17T01:37:28;20.80;99.90
23827;DHT22;12094;50.822;4.376;2023-08-17T01:40:24;20.80;99.90
23827;DHT22;12094;50.822;4.376;2023-08-17T01:42:54;20.70;99.90
23827;DHT22;12094;50.822;4.376;2023-08-17T01:45:22;20.70;99.90
23827;DHT22;12094;50.822;4.376;2023-08-17T01:47:50;20.60;99.90
23827;DHT22;12094;50.822;4.376;2023-08-17T01:50:19;20.60;99.90
23827;DHT22;12094;50.822;4.376;2023-08-17T01:52:50;20.60;99.90
23827;DHT22;12094;50.822;4.376;2023-08-17T01:55:20;20.60;99.90
23827;DHT22;12094;50.822;4.376;2023-08-17T01:57:50;20.50;99.90
23827;DHT22;12094;50.822;4.376;2023-08-17T02:00:18;20.50;99.90
23827;DHT22;12094;50.822;4.376;2023-08-17T02:02:47;20.60;99.90
23827;DHT22;12094;50.822;4.376;2023-08-17T02:05:14;20.60;99.90
23827;DHT22;12094;50.822;4.376;2023-08-17T02:07:45;20.50;99.90
23827;DHT22;12094;50.822;4.376;2023-08-17T02:10:12;20.50;99.90
23827;DHT22;12094;50.822;4.376;2023-08-17T02:12:39;20.50;99.90
23827;DHT22;12094;50.822;4.376;2023-08-17T02:15:07;20.50;99.90
23827;DHT22;12094;50.822;4.376;2023-08-17T02:17:35;20.60;99.90
23827;DHT22;12094;50.822;4.376;2023-08-17T02:20:03;20.60;99.90
23827;DHT22;12094;50.822;4.376;2023-08-17T02:22:33;20.60;99.90
23827;DHT22;12094;50.822;4.376;2023-08-17T02:25:01;20.50;99.90
23827;DHT22;12094;50.822;4.376;2023-08-17T02:27:29;20.50;99.90
23827;DHT22;12094;50.822;4.376;2023-08-17T02:29:58;20.40;99.90
23827;DHT22;12094;50.822;4.376;2023-08-17T02:32:28;20.40;99.90
23827;DHT22;12094;50.822;4.376;2023-08-17T02:34:55;20.40;99.90
23827;DHT22;12094;50.822;4.376;2023-08-17T02:37:22;20.40;99.90
23827;DHT22;12094;50.822;4.376;2023-08-17T02:39:50;20.40;99.90
23827;DHT22;12094;50.822;4.376;2023-08-17T02:42:17;20.40;99.90
23827;DHT22;12094;50.822;4.376;2023-08-17T02:44:47;20.40;99.90
23827;DHT22;12094;50.822;4.376;2023-08-17T02:47:14;20.30;99.90
23827;DHT22;12094;50.822;4.376;2023-08-17T02:49:41;20.20;99.90
23827;DHT22;12094;50.822;4.376;2023-08-17T02:52:09;20.10;99.90
23827;DHT22;12094;50.822;4.376;2023-08-17T02:54:39;20.20;99.90
23827;DHT22;12094;50.822;4.376;2023-08-17T02:57:06;20.20;99.90
23827;DHT22;12094;50.822;4.376;2023-08-17T02:59:33;20.20;99.90
23827;DHT22;12094;50.822;4.376;2023-08-17T03:02:01;20.10;99.90
23827;DHT22;12094;50.822;4.376;2023-08-17T03:04:28;20.00;99.90
23827;DHT22;12094;50.822;4.376;2023-08-17T03:06:55;19.90;99.90
23827;DHT22;12094;50.822;4.376;2023-08-17T03:09:22;19.90;99.90
23827;DHT22;12094;50.822;4.376;2023-08-17T03:11:51;20.00;99.90
23827;DHT22;12094;50.822;4.376;2023-08-17T03:14:18;20.10;99.90
23827;DHT22;12094;50.822;4.376;2023-08-17T03:16:45;19.90;99.90
23827;DHT22;12094;50.822;4.376;2023-08-17T03:19:16;20.00;99.90
23827;DHT22;12094;50.822;4.376;2023-08-17T03:21:44;20.00;99.90
23827;DHT22;12094;50.822;4.376;2023-08-17T03:24:12;20.00;99.90
23827;DHT22;12094;50.822;4.376;2023-08-17T03:26:39;20.00;99.90
23827;DHT22;12094;50.822;4.376;2023-08-17T03:29:07;20.00;99.90
23827;DHT22;12094;50.822;4.376;2023-08-17T03:31:36;19.90;99.90
23827;DHT22;12094;50.822;4.376;2023-08-17T03:34:07;19.90;99.90
23827;DHT22;12094;50.822;4.376;2023-08-17T03:36:35;19.90;99.90
23827;DHT22;12094;50.822;4.376;2023-08-17T03:39:02;19.90;99.90
23827;DHT22;12094;50.822;4.376;2023-08-17T03:41:29;19.70;99.90
23827;DHT22;12094;50.822;4.376;2023-08-17T03:43:58;19.80;99.90
23827;DHT22;12094;50.822;4.376;2023-08-17T03:46:25;19.80;99.90
23827;DHT22;12094;50.822;4.376;2023-08-17T03:48:52;19.80;99.90
23827;DHT22;12094;50.822;4.376;2023-08-17T03:51:20;19.80;99.90
23827;DHT22;12094;50.822;4.376;2023-08-17T03:53:47;19.70;99.90
23827;DHT22;12094;50.822;4.376;2023-08-17T03:56:14;19.60;99.90
23827;DHT22;12094;50.822;4.376;2023-08-17T03:58:41;19.60;99.90
23827;DHT22;12094;50.822;4.376;2023-08-17T04:01:09;19.60;99.90
23827;DHT22;12094;50.822;4.376;2023-08-17T04:03:41;19.50;99.90
23827;DHT22;12094;50.822;4.376;2023-08-17T04:06:08;19.50;99.90
23827;DHT22;12094;50.822;4.376;2023-08-17T04:08:37;19.50;99.90
23827;DHT22;12094;50.822;4.376;2023-08-17T04:11:05;19.50;99.90
23827;DHT22;12094;50.822;4.376;2023-08-17T04:13:35;19.40;99.90
23827;DHT22;12094;50.822;4.376;2023-08-17T04:16:03;19.40;99.90
23827;DHT22;12094;50.822;4.376;2023-08-17T04:18:31;19.50;99.90
23827;DHT22;12094;50.822;4.376;2023-08-17T04:20:59;19.40;99.90
23827;DHT22;12094;50.822;4.376;2023-08-17T04:23:26;19.50;99.90
23827;DHT22;12094;50.822;4.376;2023-08-17T04:25:54;19.40;99.90
23827;DHT22;12094;50.822;4.376;2023-08-17T04:28:22;19.30;99.90
23827;DHT22;12094;50.822;4.376;2023-08-17T04:30:50;19.30;99.90
23827;DHT22;12094;50.822;4.376;2023-08-17T04:33:18;19.30;99.90
23827;DHT22;12094;50.822;4.376;2023-08-17T04:35:48;19.30;99.90
23827;DHT22;12094;50.822;4.376;2023-08-17T04:38:16;19.20;99.90
23827;DHT22;12094;50.822;4.376;2023-08-17T04:40:45;19.10;99.90
23827;DHT22;12094;50.822;4.376;2023-08-17T04:43:13;19.20;99.90
23827;DHT22;12094;50.822;4.376;2023-08-17T04:45:40;19.20;99.90
23827;DHT22;12094;50.822;4.376;2023-08-17T04:48:07;19.20;99.90
23827;DHT22;12094;50.822;4.376;2023-08-17T04:50:36;19.20;99.90
23827;DHT22;12094;50.822;4.376;2023-08-17T04:53:05;19.20;99.90
23827;DHT22;12094;50.822;4.376;2023-08-17T04:55:34;19.20;99.90
23827;DHT22;12094;50.822;4.376;2023-08-17T04:58:01;19.20;99.90
23827;DHT22;12094;50.822;4.376;2023-08-17T05:00:29;19.20;99.90
23827;DHT22;12094;50.822;4.376;2023-08-17T05:02:56;19.20;99.90
23827;DHT22;12094;50.822;4.376;2023-08-17T05:05:28;19.20;99.90
23827;DHT22;12094;50.822;4.376;2023-08-17T05:07:57;19.30;99.90
23827;DHT22;12094;50.822;4.376;2023-08-17T05:10:26;19.30;99.90
23827;DHT22;12094;50.822;4.376;2023-08-17T05:12:55;19.40;99.90
23827;DHT22;12094;50.822;4.376;2023-08-17T05:15:23;19.40;99.90
23827;DHT22;12094;50.822;4.376;2023-08-17T05:17:51;19.30;99.90
23827;DHT22;12094;50.822;4.376;2023-08-17T05:20:18;19.40;99.90
23827;DHT22;12094;50.822;4.376;2023-08-17T05:22:48;19.30;99.90
23827;DHT22;12094;50.822;4.376;2023-08-17T05:25:15;19.40;99.90
23827;DHT22;12094;50.822;4.376;2023-08-17T05:27:42;19.50;99.90
23827;DHT22;12094;50.822;4.376;2023-08-17T05:30:10;19.40;99.90
23827;DHT22;12094;50.822;4.376;2023-08-17T05:32:40;19.50;99.90
23827;DHT22;12094;50.822;4.376;2023-08-17T05:35:07;19.50;99.90
23827;DHT22;12094;50.822;4.376;2023-08-17T05:37:36;19.50;99.90
23827;DHT22;12094;50.822;4.376;2023-08-17T05:40:03;19.50;99.90
23827;DHT22;12094;50.822;4.376;2023-08-17T05:42:31;19.50;99.90
23827;DHT22;12094;50.822;4.376;2023-08-17T05:44:58;19.40;99.90
23827;DHT22;12094;50.822;4.376;2023-08-17T05:47:27;19.50;99.90
23827;DHT22;12094;50.822;4.376;2023-08-17T05:49:57;19.60;99.90
23827;DHT22;12094;50.822;4.376;2023-08-17T05:52:28;19.60;99.90
23827;DHT22;12094;50.822;4.376;2023-08-17T05:54:55;19.70;99.90
23827;DHT22;12094;50.822;4.376;2023-08-17T05:57:22;19.60;99.90
23827;DHT22;12094;50.822;4.376;2023-08-17T05:59:52;19.60;99.90
23827;DHT22;12094;50.822;4.376;2023-08-17T06:02:19;19.60;99.90
23827;DHT22;12094;50.822;4.376;2023-08-17T06:04:47;19.60;99.90
23827;DHT22;12094;50.822;4.376;2023-08-17T06:07:16;19.70;99.90
23827;DHT22;12094;50.822;4.376;2023-08-17T06:09:44;19.80;99.90
23827;DHT22;12094;50.822;4.376;2023-08-17T06:12:11;19.80;99.90
23827;DHT22;12094;50.822;4.376;2023-08-17T06:14:41;19.90;99.90
23827;DHT22;12094;50.822;4.376;2023-08-17T06:17:09;19.90;99.90
23827;DHT22;12094;50.822;4.376;2023-08-17T06:19:36;19.90;99.90
23827;DHT22;12094;50.822;4.376;2023-08-17T06:22:03;19.90;99.90
23827;DHT22;12094;50.822;4.376;2023-08-17T06:24:30;20.00;99.90
23827;DHT22;12094;50.822;4.376;2023-08-17T06:26:57;20.10;99.90
23827;DHT22;12094;50.822;4.376;2023-08-17T06:29:26;20.00;99.90
23827;DHT22;12094;50.822;4.376;2023-08-17T06:31:54;20.00;99.90
23827;DHT22;12094;50.822;4.376;2023-08-17T06:34:21;19.90;99.90
23827;DHT22;12094;50.822;4.376;2023-08-17T06:37:01;19.90;99.90
23827;DHT22;12094;50.822;4.376;2023-08-17T06:39:29;19.90;99.90
23827;DHT22;12094;50.822;4.376;2023-08-17T06:41:56;19.90;99.90
23827;DHT22;12094;50.822;4.376;2023-08-17T06:44:23;19.90;99.90
23827;DHT22;12094;50.822;4.376;2023-08-17T06:46:50;19.90;99.90
23827;DHT22;12094;50.822;4.376;2023-08-17T06:49:17;19.80;99.90
23827;DHT22;12094;50.822;4.376;2023-08-17T06:51:44;19.70;99.90
23827;DHT22;12094;50.822;4.376;2023-08-17T06:54:11;19.80;99.90
23827;DHT22;12094;50.822;4.376;2023-08-17T06:56:38;19.70;99.90
23827;DHT22;12094;50.822;4.376;2023-08-17T06:59:05;19.70;99.90
23827;DHT22;12094;50.822;4.376;2023-08-17T07:01:33;19.70;99.90
23827;DHT22;12094;50.822;4.376;2023-08-17T07:04:02;19.60;99.90
23827;DHT22;12094;50.822;4.376;2023-08-17T07:06:29;19.70;99.90
23827;DHT22;12094;50.822;4.376;2023-08-17T07:08:56;19.70;99.90
23827;DHT22;12094;50.822;4.376;2023-08-17T07:11:24;19.70;99.90
23827;DHT22;12094;50.822;4.376;2023-08-17T07:13:51;19.70;99.90
23827;DHT22;12094;50.822;4.376;2023-08-17T07:16:19;19.90;99.90
23827;DHT22;12094;50.822;4.376;2023-08-17T07:18:46;19.80;99.90
23827;DHT22;12094;50.822;4.376;2023-08-17T07:21:13;19.80;99.90
23827;DHT22;12094;50.822;4.376;2023-08-17T07:23:44;19.90;99.90
23827;DHT22;12094;50.822;4.376;2023-08-17T07:26:12;19.90;99.90
23827;DHT22;12094;50.822;4.376;2023-08-17T07:28:40;19.80;99.90
23827;DHT22;12094;50.822;4.376;2023-08-17T07:31:08;19.90;99.90
23827;DHT22;12094;50.822;4.376;2023-08-17T07:33:35;19.90;99.90
23827;DHT22;12094;50.822;4.376;2023-08-17T07:36:05;19.90;99.90
23827;DHT22;12094;50.822;4.376;2023-08-17T07:38:34;19.90;99.90
23827;DHT22;12094;50.822;4.376;2023-08-17T07:41:01;19.90;99.90
23827;DHT22;12094;50.822;4.376;2023-08-17T07:43:28;19.80;99.90
23827;DHT22;12094;50.822;4.376;2023-08-17T07:45:56;19.90;99.90
23827;DHT22;12094;50.822;4.376;2023-08-17T07:48:24;20.00;99.90
23827;DHT22;12094;50.822;4.376;2023-08-17T07:50:52;20.00;99.90
23827;DHT22;12094;50.822;4.376;2023-08-17T07:53:22;20.00;99.90
23827;DHT22;12094;50.822;4.376;2023-08-17T07:55:49;20.00;99.90
23827;DHT22;12094;50.822;4.376;2023-08-17T07:58:19;20.10;99.90
23827;DHT22;12094;50.822;4.376;2023-08-17T08:00:46;20.00;99.90
23827;DHT22;12094;50.822;4.376;2023-08-17T08:03:14;20.20;99.90
23827;DHT22;12094;50.822;4.376;2023-08-17T08:05:41;20.20;99.90
23827;DHT22;12094;50.822;4.376;2023-08-17T08:08:09;20.20;99.90
23827;DHT22;12094;50.822;4.376;2023-08-17T08:10:36;20.10;99.90
23827;DHT22;12094;50.822;4.376;2023-08-17T08:13:03;20.10;99.90
23827;DHT22;12094;50.822;4.376;2023-08-17T08:15:30;20.20;99.90
23827;DHT22;12094;50.822;4.376;2023-08-17T08:17:57;20.20;99.90
23827;DHT22;12094;50.822;4.376;2023-08-17T08:20:28;20.10;99.90
23827;DHT22;12094;50.822;4.376;2023-08-17T08:22:55;20.20;99.90
23827;DHT22;12094;50.822;4.376;2023-08-17T08:25:23;20.30;99.90
23827;DHT22;12094;50.822;4.376;2023-08-17T08:27:50;20.40;99.90
23827;DHT22;12094;50.822;4.376;2023-08-17T08:30:18;20.60;99.90
23827;DHT22;12094;50.822;4.376;2023-08-17T08:32:45;20.70;99.90
23827;DHT22;12094;50.822;4.376;2023-08-17T08:35:12;20.70;99.90
23827;DHT22;12094;50.822;4.376;2023-08-17T08:37:40;20.90;99.90
23827;DHT22;12094;50.822;4.376;2023-08-17T08:40:12;21.00;99.90
23827;DHT22;12094;50.822;4.376;2023-08-17T08:42:42;21.00;99.90
23827;DHT22;12094;50.822;4.376;2023-08-17T08:45:09;21.20;99.90
23827;DHT22;12094;50.822;4.376;2023-08-17T08:47:37;21.20;99.90
23827;DHT22;12094;50.822;4.376;2023-08-17T08:50:05;21.20;99.90
23827;DHT22;12094;50.822;4.376;2023-08-17T08:53:00;21.30;99.90
23827;DHT22;12094;50.822;4.376;2023-08-17T08:55:29;21.40;99.90
23827;DHT22;12094;50.822;4.376;2023-08-17T08:57:58;21.40;99.90
23827;DHT22;12094;50.822;4.376;2023-08-17T09:00:25;21.40;99.90
23827;DHT22;12094;50.822;4.376;2023-08-17T09:02:54;21.40;99.90
23827;DHT22;12094;50.822;4.376;2023-08-17T09:05:22;21.30;99.90
23827;DHT22;12094;50.822;4.376;2023-08-17T09:07:49;21.30;99.90
23827;DHT22;12094;50.822;4.376;2023-08-17T09:10:19;21.40;99.90
23827;DHT22;12094;50.822;4.376;2023-08-17T09:12:46;21.50;99.90
23827;DHT22;12094;50.822;4.376;2023-08-17T09:15:17;21.60;99.90
23827;DHT22;12094;50.822;4.376;2023-08-17T09:17:44;21.70;99.90
23827;DHT22;12094;50.822;4.376;2023-08-17T09:20:12;21.80;99.90
23827;DHT22;12094;50.822;4.376;2023-08-17T09:22:41;22.00;99.90
23827;DHT22;12094;50.822;4.376;2023-08-17T09:25:10;22.20;99.90
23827;DHT22;12094;50.822;4.376;2023-08-17T09:27:38;22.10;99.90
23827;DHT22;12094;50.822;4.376;2023-08-17T09:30:10;22.10;99.90
23827;DHT22;12094;50.822;4.376;2023-08-17T09:32:37;22.10;99.90
23827;DHT22;12094;50.822;4.376;2023-08-17T09:35:06;22.00;99.90
23827;DHT22;12094;50.822;4.376;2023-08-17T09:37:35;21.70;99.90
23827;DHT22;12094;50.822;4.376;2023-08-17T09:40:02;21.70;99.90
23827;DHT22;12094;50.822;4.376;2023-08-17T09:42:29;21.90;99.90
23827;DHT22;12094;50.822;4.376;2023-08-17T09:44:58;22.00;99.90
23827;DHT22;12094;50.822;4.376;2023-08-17T09:47:28;22.10;99.90
23827;DHT22;12094;50.822;4.376;2023-08-17T09:49:58;22.20;99.90
23827;DHT22;12094;50.822;4.376;2023-08-17T09:52:25;22.40;99.90
23827;DHT22;12094;50.822;4.376;2023-08-17T09:54:53;22.40;99.90
23827;DHT22;12094;50.822;4.376;2023-08-17T09:57:27;22.40;99.90
23827;DHT22;12094;50.822;4.376;2023-08-17T09:59:54;22.60;99.90
23827;DHT22;12094;50.822;4.376;2023-08-17T10:02:23;22.50;99.90
23827;DHT22;12094;50.822;4.376;2023-08-17T10:04:54;22.60;99.90
23827;DHT22;12094;50.822;4.376;2023-08-17T10:07:29;22.90;99.90
23827;DHT22;12094;50.822;4.376;2023-08-17T10:10:04;22.80;99.90
23827;DHT22;12094;50.822;4.376;2023-08-17T10:12:44;22.80;99.90
23827;DHT22;12094;50.822;4.376;2023-08-17T10:15:15;22.70;99.90
23827;DHT22;12094;50.822;4.376;2023-08-17T10:21:00;22.90;99.90
23827;DHT22;12094;50.822;4.376;2023-08-17T10:23:29;23.00;99.90
23827;DHT22;12094;50.822;4.376;2023-08-17T10:25:57;22.90;99.90
23827;DHT22;12094;50.822;4.376;2023-08-17T10:28:27;23.00;99.90
23827;DHT22;12094;50.822;4.376;2023-08-17T10:30:54;23.10;99.90
23827;DHT22;12094;50.822;4.376;2023-08-17T10:33:22;23.30;99.90
23827;DHT22;12094;50.822;4.376;2023-08-17T10:35:49;23.40;99.90
23827;DHT22;12094;50.822;4.376;2023-08-17T10:38:17;23.40;99.90
23827;DHT22;12094;50.822;4.376;2023-08-17T10:40:44;23.40;99.90
23827;DHT22;12094;50.822;4.376;2023-08-17T10:43:12;23.60;99.90
23827;DHT22;12094;50.822;4.376;2023-08-17T10:45:39;23.50;99.90
23827;DHT22;12094;50.822;4.376;2023-08-17T10:50:37;23.60;99.90
23827;DHT22;12094;50.822;4.376;2023-08-17T10:53:12;23.60;99.90
23827;DHT22;12094;50.822;4.376;2023-08-17T10:55:45;23.60;99.90
23827;DHT22;12094;50.822;4.376;2023-08-17T10:58:18;23.40;99.90
23827;DHT22;12094;50.822;4.376;2023-08-17T11:00:45;23.50;99.90
23827;DHT22;12094;50.822;4.376;2023-08-17T11:03:20;23.50;99.90
23827;DHT22;12094;50.822;4.376;2023-08-17T11:05:55;23.60;99.90
23827;DHT22;12094;50.822;4.376;2023-08-17T11:08:38;23.50;99.90
23827;DHT22;12094;50.822;4.376;2023-08-17T11:11:14;23.50;99.90
23827;DHT22;12094;50.822;4.376;2023-08-17T11:13:45;23.50;99.90
23827;DHT22;12094;50.822;4.376;2023-08-17T11:16:13;23.50;99.90
23827;DHT22;12094;50.822;4.376;2023-08-17T11:18:46;22.90;99.90
23827;DHT22;12094;50.822;4.376;2023-08-17T11:21:18;23.00;99.90
23827;DHT22;12094;50.822;4.376;2023-08-17T11:23:47;23.10;99.90
23827;DHT22;12094;50.822;4.376;2023-08-17T11:26:20;23.20;99.90
23827;DHT22;12094;50.822;4.376;2023-08-17T11:28:47;23.20;99.90
23827;DHT22;12094;50.822;4.376;2023-08-17T11:31:15;23.40;99.90
23827;DHT22;12094;50.822;4.376;2023-08-17T11:33:44;23.30;99.90
23827;DHT22;12094;50.822;4.376;2023-08-17T11:36:16;23.30;99.90
23827;DHT22;12094;50.822;4.376;2023-08-17T11:38:45;23.30;99.90
23827;DHT22;12094;50.822;4.376;2023-08-17T11:41:17;23.10;99.90
23827;DHT22;12094;50.822;4.376;2023-08-17T11:44:02;23.20;99.90
23827;DHT22;12094;50.822;4.376;2023-08-17T11:46:33;23.50;99.90
23827;DHT22;12094;50.822;4.376;2023-08-17T11:49:01;23.50;99.90
23827;DHT22;12094;50.822;4.376;2023-08-17T11:51:30;23.50;99.90
23827;DHT22;12094;50.822;4.376;2023-08-17T11:54:04;23.50;99.90
23827;DHT22;12094;50.822;4.376;2023-08-17T11:56:37;23.40;99.90
23827;DHT22;12094;50.822;4.376;2023-08-17T11:59:13;23.40;99.90
23827;DHT22;12094;50.822;4.376;2023-08-17T12:01:49;23.40;99.90
23827;DHT22;12094;50.822;4.376;2023-08-17T12:04:21;23.30;99.90
23827;DHT22;12094;50.822;4.376;2023-08-17T12:06:50;23.40;99.90
23827;DHT22;12094;50.822;4.376;2023-08-17T12:09:21;23.40;99.90
23827;DHT22;12094;50.822;4.376;2023-08-17T12:11:58;23.20;99.90
23827;DHT22;12094;50.822;4.376;2023-08-17T12:14:28;23.10;99.90
23827;DHT22;12094;50.822;4.376;2023-08-17T12:16:57;23.20;99.90
23827;DHT22;12094;50.822;4.376;2023-08-17T12:19:29;23.00;99.90
23827;DHT22;12094;50.822;4.376;2023-08-17T12:21:58;23.10;99.90
23827;DHT22;12094;50.822;4.376;2023-08-17T12:24:25;22.70;99.90
23827;DHT22;12094;50.822;4.376;2023-08-17T12:26:57;22.90;99.90
23827;DHT22;12094;50.822;4.376;2023-08-17T12:29:25;22.90;99.90
23827;DHT22;12094;50.822;4.376;2023-08-17T12:31:53;22.90;99.90
23827;DHT22;12094;50.822;4.376;2023-08-17T12:34:22;23.00;99.90
23827;DHT22;12094;50.822;4.376;2023-08-17T12:36:49;22.90;99.90
23827;DHT22;12094;50.822;4.376;2023-08-17T12:39:19;22.90;99.90
23827;DHT22;12094;50.822;4.376;2023-08-17T12:41:46;22.80;99.90
23827;DHT22;12094;50.822;4.376;2023-08-17T12:44:16;22.80;99.90
23827;DHT22;12094;50.822;4.376;2023-08-17T12:46:44;22.80;99.90
23827;DHT22;12094;50.822;4.376;2023-08-17T12:49:19;22.80;99.90
23827;DHT22;12094;50.822;4.376;2023-08-17T12:51:49;22.80;99.90
23827;DHT22;12094;50.822;4.376;2023-08-17T12:54:18;22.90;99.90
23827;DHT22;12094;50.822;4.376;2023-08-17T12:56:46;22.90;99.90
23827;DHT22;12094;50.822;4.376;2023-08-17T12:59:14;22.80;99.90
23827;DHT22;12094;50.822;4.376;2023-08-17T13:01:44;22.80;99.90
23827;DHT22;12094;50.822;4.376;2023-08-17T13:04:15;22.80;99.90
23827;DHT22;12094;50.822;4.376;2023-08-17T13:06:44;22.90;99.90
23827;DHT22;12094;50.822;4.376;2023-08-17T13:09:17;23.00;99.90
23827;DHT22;12094;50.822;4.376;2023-08-17T13:11:47;23.10;99.90
23827;DHT22;12094;50.822;4.376;2023-08-17T13:14:16;23.30;99.90
23827;DHT22;12094;50.822;4.376;2023-08-17T13:16:46;23.30;99.90
23827;DHT22;12094;50.822;4.376;2023-08-17T13:19:13;23.30;99.90
23827;DHT22;12094;50.822;4.376;2023-08-17T13:21:43;23.30;99.90
23827;DHT22;12094;50.822;4.376;2023-08-17T13:24:12;23.30;99.90
23827;DHT22;12094;50.822;4.376;2023-08-17T13:27:05;23.40;99.90
23827;DHT22;12094;50.822;4.376;2023-08-17T13:29:35;23.40;99.90
23827;DHT22;12094;50.822;4.376;2023-08-17T13:32:07;23.40;99.90
23827;DHT22;12094;50.822;4.376;2023-08-17T13:34:39;23.40;99.90
23827;DHT22;12094;50.822;4.376;2023-08-17T13:37:10;23.30;99.90
23827;DHT22;12094;50.822;4.376;2023-08-17T13:39:37;23.40;99.90
23827;DHT22;12094;50.822;4.376;2023-08-17T13:42:05;23.40;99.90
23827;DHT22;12094;50.822;4.376;2023-08-17T13:48:49;23.50;99.90
23827;DHT22;12094;50.822;4.376;2023-08-17T13:51:20;23.60;99.90
23827;DHT22;12094;50.822;4.376;2023-08-17T13:53:47;23.60;99.90
23827;DHT22;12094;50.822;4.376;2023-08-17T13:56:16;23.70;99.90
23827;DHT22;12094;50.822;4.376;2023-08-17T13:58:43;23.60;99.90
23827;DHT22;12094;50.822;4.376;2023-08-17T14:01:17;23.60;99.90
23827;DHT22;12094;50.822;4.376;2023-08-17T14:03:47;23.50;99.90
23827;DHT22;12094;50.822;4.376;2023-08-17T14:06:15;23.50;99.90
23827;DHT22;12094;50.822;4.376;2023-08-17T14:08:45;23.50;99.90
23827;DHT22;12094;50.822;4.376;2023-08-17T14:11:13;23.40;99.90
23827;DHT22;12094;50.822;4.376;2023-08-17T14:13:42;23.20;99.90
23827;DHT22;12094;50.822;4.376;2023-08-17T14:16:09;23.10;99.90
23827;DHT22;12094;50.822;4.376;2023-08-17T14:18:37;23.10;99.90
23827;DHT22;12094;50.822;4.376;2023-08-17T14:21:07;23.20;99.90
23827;DHT22;12094;50.822;4.376;2023-08-17T14:24:00;23.10;99.90
23827;DHT22;12094;50.822;4.376;2023-08-17T14:26:30;23.00;99.90
23827;DHT22;12094;50.822;4.376;2023-08-17T14:28:58;23.00;99.90
23827;DHT22;12094;50.822;4.376;2023-08-17T14:31:29;23.20;99.90
23827;DHT22;12094;50.822;4.376;2023-08-17T14:33:56;23.20;99.90
23827;DHT22;12094;50.822;4.376;2023-08-17T14:36:24;23.10;99.90
23827;DHT22;12094;50.822;4.376;2023-08-17T14:38:51;23.10;99.90
23827;DHT22;12094;50.822;4.376;2023-08-17T14:41:22;23.20;99.90
23827;DHT22;12094;50.822;4.376;2023-08-17T14:43:50;23.20;99.90
23827;DHT22;12094;50.822;4.376;2023-08-17T14:46:17;23.30;99.90
23827;DHT22;12094;50.822;4.376;2023-08-17T14:48:44;23.10;99.90
23827;DHT22;12094;50.822;4.376;2023-08-17T14:51:11;22.90;99.90
23827;DHT22;12094;50.822;4.376;2023-08-17T14:53:41;22.70;99.90
23827;DHT22;12094;50.822;4.376;2023-08-17T14:56:08;22.70;99.90
23827;DHT22;12094;50.822;4.376;2023-08-17T14:58:35;22.40;99.90
23827;DHT22;12094;50.822;4.376;2023-08-17T15:01:02;22.50;99.90
23827;DHT22;12094;50.822;4.376;2023-08-17T15:03:30;22.70;99.90
23827;DHT22;12094;50.822;4.376;2023-08-17T15:05:57;22.70;99.90
23827;DHT22;12094;50.822;4.376;2023-08-17T15:08:25;22.60;99.90
23827;DHT22;12094;50.822;4.376;2023-08-17T15:10:52;22.60;99.90
23827;DHT22;12094;50.822;4.376;2023-08-17T15:13:20;22.70;99.90
23827;DHT22;12094;50.822;4.376;2023-08-17T15:15:51;22.80;99.90
23827;DHT22;12094;50.822;4.376;2023-08-17T15:18:19;22.90;99.90
23827;DHT22;12094;50.822;4.376;2023-08-17T15:20:49;23.00;99.90
23827;DHT22;12094;50.822;4.376;2023-08-17T15:23:16;23.10;99.90
23827;DHT22;12094;50.822;4.376;2023-08-17T15:25:44;23.30;99.90
23827;DHT22;12094;50.822;4.376;2023-08-17T15:28:12;23.30;99.90
23827;DHT22;12094;50.822;4.376;2023-08-17T15:30:39;23.50;99.90
23827;DHT22;12094;50.822;4.376;2023-08-17T15:33:06;23.60;99.90
23827;DHT22;12094;50.822;4.376;2023-08-17T15:35:34;23.70;99.90
23827;DHT22;12094;50.822;4.376;2023-08-17T15:38:01;23.60;99.90
23827;DHT22;12094;50.822;4.376;2023-08-17T15:40:29;23.50;99.90
23827;DHT22;12094;50.822;4.376;2023-08-17T15:42:56;23.50;99.90
23827;DHT22;12094;50.822;4.376;2023-08-17T15:45:24;23.40;99.90
23827;DHT22;12094;50.822;4.376;2023-08-17T15:47:52;23.50;99.90
23827;DHT22;12094;50.822;4.376;2023-08-17T15:50:19;23.50;99.90
23827;DHT22;12094;50.822;4.376;2023-08-17T15:52:47;23.50;99.90